createdAt,value
2023-01-28T00:01:57.789Z,4.30
2023-01-28T00:04:24.940Z,3.90
2023-01-28T00:06:53.747Z,3.53
2023-01-28T00:09:20.794Z,4.60
2023-01-28T00:11:47.796Z,4.43
2023-01-28T00:14:14.898Z,4.13
2023-01-28T00:16:41.882Z,3.40
2023-01-28T00:19:08.867Z,3.60
2023-01-28T00:21:35.845Z,3.88
2023-01-28T00:24:02.918Z,3.55
2023-01-28T00:26:29.878Z,3.75
2023-01-28T00:28:56.869Z,3.13
2023-01-28T00:31:27.530Z,3.58
2023-01-28T00:33:55.649Z,3.67
2023-01-28T00:36:24.498Z,3.22
2023-01-28T00:38:57.015Z,3.80
2023-01-28T00:41:26.294Z,3.75
2023-01-28T00:43:53.949Z,3.40
2023-01-28T00:46:22.761Z,3.67
2023-01-28T00:48:49.896Z,4.03
2023-01-28T00:51:18.493Z,3.42
2023-01-28T00:53:45.632Z,3.30
2023-01-28T00:56:16.973Z,3.25
2023-01-28T00:58:44.373Z,3.47
2023-01-28T01:01:17.698Z,3.70
2023-01-28T01:03:44.982Z,3.40
2023-01-28T01:06:16.151Z,3.40
2023-01-28T01:08:50.533Z,3.40
2023-01-28T01:11:18.242Z,3.00
2023-01-28T01:13:49.765Z,4.03
2023-01-28T01:16:17.431Z,3.10
2023-01-28T01:18:45.011Z,3.42
2023-01-28T01:21:15.044Z,3.33
2023-01-28T01:23:42.587Z,3.00
2023-01-28T01:26:09.923Z,3.13
2023-01-28T01:28:37.860Z,2.83
2023-01-28T01:31:07.701Z,3.45
2023-01-28T01:33:35.304Z,3.55
2023-01-28T01:36:02.337Z,4.07
2023-01-28T01:38:30.031Z,2.88
2023-01-28T01:40:59.199Z,3.50
2023-01-28T01:43:45.917Z,3.40
2023-01-28T01:46:13.798Z,3.38
2023-01-28T01:48:41.312Z,3.35
2023-01-28T01:51:10.793Z,3.03
2023-01-28T01:53:46.988Z,3.38
2023-01-28T01:56:18.169Z,3.78
2023-01-28T01:58:49.445Z,3.58
2023-01-28T02:01:17.916Z,3.70
2023-01-28T02:04:04.510Z,3.72
2023-01-28T02:06:32.438Z,3.45
2023-01-28T02:08:59.494Z,3.58
2023-01-28T02:11:30.871Z,3.40
2023-01-28T02:14:01.159Z,3.17
2023-01-28T02:16:29.479Z,3.47
2023-01-28T02:18:56.487Z,3.40
2023-01-28T02:21:35.413Z,3.35
2023-01-28T02:24:24.090Z,3.47
2023-01-28T02:27:10.714Z,3.30
2023-01-28T02:30:01.831Z,3.25
2023-01-28T02:32:33.877Z,4.18
2023-01-28T02:35:15.711Z,3.20
2023-01-28T02:38:04.262Z,2.80
2023-01-28T02:40:55.015Z,2.67
2023-01-28T02:43:41.895Z,3.13
2023-01-28T02:46:45.633Z,2.70
2023-01-28T02:49:23.177Z,2.90
2023-01-28T02:52:20.902Z,3.13
2023-01-28T02:55:01.862Z,2.53
2023-01-28T02:58:06.401Z,2.67
2023-01-28T03:00:42.281Z,2.42
2023-01-28T03:03:35.841Z,2.50
2023-01-28T03:06:10.519Z,2.95
2023-01-28T03:09:02.063Z,2.42
2023-01-28T03:11:50.369Z,2.67
2023-01-28T03:14:37.404Z,3.55
2023-01-28T03:17:26.843Z,3.35
2023-01-28T03:20:13.150Z,2.88
2023-01-28T03:23:06.338Z,2.70
2023-01-28T03:25:54.260Z,2.67
2023-01-28T03:28:42.003Z,2.65
2023-01-28T03:31:36.886Z,3.42
2023-01-28T03:34:24.678Z,2.78
2023-01-28T03:36:53.550Z,3.35
2023-01-28T03:39:25.669Z,3.45
2023-01-28T03:42:01.418Z,3.40
2023-01-28T03:44:46.969Z,3.17
2023-01-28T03:47:14.525Z,3.90
2023-01-28T03:49:46.319Z,4.47
2023-01-28T03:52:13.802Z,3.72
2023-01-28T03:54:40.755Z,3.65
2023-01-28T03:57:07.774Z,3.70
2023-01-28T03:59:34.794Z,3.33
2023-01-28T04:02:03.597Z,3.88
2023-01-28T04:04:32.779Z,3.25
2023-01-28T04:07:00.717Z,3.85
2023-01-28T04:09:27.828Z,3.78
2023-01-28T04:11:54.807Z,4.50
2023-01-28T04:14:21.953Z,4.13
2023-01-28T04:16:49.304Z,3.65
2023-01-28T04:19:16.285Z,4.50
2023-01-28T04:21:43.286Z,4.78
2023-01-28T04:24:10.423Z,4.50
2023-01-28T04:26:37.429Z,5.07
2023-01-28T04:29:04.477Z,3.90
2023-01-28T04:31:31.672Z,4.22
2023-01-28T04:33:58.667Z,4.68
2023-01-28T04:36:26.156Z,3.65
2023-01-28T04:38:53.442Z,3.10
2023-01-28T04:41:20.737Z,3.83
2023-01-28T04:43:49.404Z,3.33
2023-01-28T04:46:17.062Z,3.88
2023-01-28T04:48:44.035Z,4.70
2023-01-28T04:51:11.017Z,3.35
2023-01-28T04:53:37.973Z,3.55
2023-01-28T04:56:05.038Z,3.88
2023-01-28T04:58:32.008Z,3.80
2023-01-28T05:00:59.995Z,3.60
2023-01-28T05:03:27.665Z,3.85
2023-01-28T05:05:54.667Z,3.45
2023-01-28T05:08:21.759Z,3.42
2023-01-28T05:10:48.956Z,4.28
2023-01-28T05:13:15.957Z,3.90
2023-01-28T05:15:42.851Z,3.70
2023-01-28T05:18:09.801Z,3.50
2023-01-28T05:20:36.716Z,3.40
2023-01-28T05:23:04.681Z,3.58
2023-01-28T05:25:31.613Z,3.67
2023-01-28T05:27:58.825Z,4.47
2023-01-28T05:30:25.946Z,3.40
2023-01-28T05:32:56.761Z,3.60
2023-01-28T05:35:24.205Z,3.25
2023-01-28T05:37:51.686Z,3.20
2023-01-28T05:40:19.030Z,3.83
2023-01-28T05:42:46.081Z,3.90
2023-01-28T05:45:13.615Z,3.67
2023-01-28T05:47:40.859Z,4.22
2023-01-28T05:50:08.956Z,3.50
2023-01-28T05:52:35.928Z,3.63
2023-01-28T05:55:03.174Z,3.78
2023-01-28T05:57:30.547Z,3.47
2023-01-28T05:59:57.496Z,4.43
2023-01-28T06:02:24.691Z,4.30
2023-01-28T06:04:51.644Z,3.92
2023-01-28T06:07:20.440Z,4.38
2023-01-28T06:09:50.402Z,3.20
2023-01-28T06:12:17.326Z,3.80
2023-01-28T06:14:44.327Z,3.63
2023-01-28T06:17:11.354Z,3.05
2023-01-28T06:19:38.284Z,4.00
2023-01-28T06:22:05.261Z,3.40
2023-01-28T06:24:32.227Z,3.67
2023-01-28T06:26:59.414Z,3.83
2023-01-28T06:29:26.335Z,3.30
2023-01-28T06:31:53.931Z,3.15
2023-01-28T06:34:20.929Z,4.45
2023-01-28T06:36:47.970Z,4.35
2023-01-28T06:39:14.885Z,4.13
2023-01-28T06:41:41.976Z,4.00
2023-01-28T06:44:08.985Z,3.92
2023-01-28T06:46:36.063Z,3.95
2023-01-28T06:49:03.176Z,4.07
2023-01-28T06:51:30.072Z,3.67
2023-01-28T06:53:57.049Z,3.35
2023-01-28T06:56:24.015Z,3.60
2023-01-28T06:58:51.397Z,3.45
2023-01-28T07:01:18.312Z,4.22
2023-01-28T07:03:45.289Z,4.45
2023-01-28T07:06:12.245Z,4.47
2023-01-28T07:08:39.928Z,4.53
2023-01-28T07:11:07.339Z,4.10
2023-01-28T07:13:34.411Z,4.03
2023-01-28T07:16:01.414Z,3.80
2023-01-28T07:18:28.413Z,4.40
2023-01-28T07:20:55.422Z,5.03
2023-01-28T07:23:22.581Z,6.95
2023-01-28T07:25:49.583Z,7.30
2023-01-28T07:28:21.608Z,4.35
2023-01-28T07:30:53.207Z,3.97
2023-01-28T07:33:20.823Z,3.58
2023-01-28T07:35:48.355Z,4.10
2023-01-28T07:38:15.783Z,3.30
2023-01-28T07:40:42.768Z,3.90
2023-01-28T07:43:10.071Z,3.92
2023-01-28T07:45:38.063Z,3.42
2023-01-28T07:48:07.620Z,3.70
2023-01-28T07:50:37.030Z,3.90
2023-01-28T07:53:06.608Z,3.10
2023-01-28T07:55:35.931Z,2.92
2023-01-28T07:58:06.583Z,2.78
2023-01-28T08:00:35.717Z,3.03
2023-01-28T08:03:05.426Z,2.97
2023-01-28T08:05:41.704Z,2.90
2023-01-28T08:08:12.323Z,3.38
2023-01-28T08:10:39.763Z,3.05
2023-01-28T08:13:07.330Z,3.10
2023-01-28T08:15:35.378Z,2.83
2023-01-28T08:21:50.520Z,2.90
2023-01-28T08:24:18.099Z,3.30
2023-01-28T08:26:47.873Z,3.13
2023-01-28T08:29:14.923Z,3.70
2023-01-28T08:31:41.929Z,3.83
2023-01-28T08:34:08.960Z,3.70
2023-01-28T08:36:36.069Z,3.50
2023-01-28T08:39:03.112Z,3.08
2023-01-28T08:41:31.151Z,3.17
2023-01-28T08:43:59.043Z,2.80
2023-01-28T08:46:26.259Z,2.70
2023-01-28T08:48:53.261Z,3.00
2023-01-28T08:51:20.214Z,3.03
2023-01-28T08:53:47.289Z,2.55
2023-01-28T08:56:15.070Z,2.90
2023-01-28T08:58:41.986Z,2.88
2023-01-28T09:01:08.937Z,2.67
2023-01-28T09:03:36.360Z,2.90
2023-01-28T09:06:04.567Z,2.72
2023-01-28T09:08:31.872Z,2.53
2023-01-28T09:10:59.430Z,2.90
2023-01-28T09:13:27.169Z,2.15
2023-01-28T09:15:54.187Z,2.40
2023-01-28T09:18:21.358Z,2.78
2023-01-28T09:20:48.313Z,2.38
2023-01-28T09:23:15.415Z,2.30
2023-01-28T09:25:42.468Z,2.20
2023-01-28T09:28:09.716Z,2.80
2023-01-28T09:30:38.247Z,2.30
2023-01-28T09:33:05.882Z,2.55
2023-01-28T09:35:34.315Z,2.50
2023-01-28T09:38:01.346Z,2.10
2023-01-28T09:40:58.146Z,2.90
2023-01-28T09:43:46.891Z,2.28
2023-01-28T09:46:15.551Z,2.60
2023-01-28T09:48:46.504Z,1.90
2023-01-28T09:51:28.726Z,1.95
2023-01-28T09:54:00.778Z,2.00
2023-01-28T09:56:34.781Z,2.03
2023-01-28T09:59:19.509Z,2.15
2023-01-28T10:01:52.226Z,2.28
2023-01-28T10:04:47.758Z,2.70
2023-01-28T10:07:37.732Z,2.30
2023-01-28T10:10:26.123Z,2.55
2023-01-28T10:13:03.418Z,2.42
2023-01-28T10:15:47.616Z,2.92
2023-01-28T10:18:18.415Z,3.60
2023-01-28T10:21:23.766Z,4.35
2023-01-28T10:24:17.190Z,3.60
2023-01-28T10:26:45.070Z,4.38
2023-01-28T10:29:20.261Z,3.90
2023-01-28T10:31:55.896Z,4.22
2023-01-28T10:34:23.670Z,3.70
2023-01-28T10:36:51.418Z,3.58
2023-01-28T10:39:21.309Z,3.30
2023-01-28T10:41:57.410Z,3.97
2023-01-28T10:44:52.101Z,2.95
2023-01-28T10:47:30.999Z,2.80
2023-01-28T10:49:59.964Z,2.80
2023-01-28T10:52:26.914Z,3.00
2023-01-28T10:55:05.780Z,3.08
2023-01-28T10:57:41.569Z,3.22
2023-01-28T11:00:31.701Z,3.35
2023-01-28T11:02:59.401Z,3.25
2023-01-28T11:05:29.514Z,5.55
2023-01-28T11:08:17.219Z,7.82
2023-01-28T11:10:45.379Z,4.80
2023-01-28T11:13:16.818Z,4.50
2023-01-28T11:19:34.123Z,4.05
2023-01-28T11:22:02.120Z,5.45
2023-01-28T11:24:31.684Z,10.93
2023-01-28T11:27:02.445Z,4.78
2023-01-28T11:29:33.058Z,6.45
2023-01-28T11:32:00.888Z,14.35
2023-01-28T11:34:30.653Z,7.80
2023-01-28T11:37:13.131Z,5.10
2023-01-28T11:39:40.058Z,4.30
2023-01-28T11:42:22.770Z,3.88
2023-01-28T11:44:50.367Z,4.20
2023-01-28T11:47:35.503Z,4.07
2023-01-28T11:50:20.724Z,10.32
2023-01-28T11:53:19.500Z,9.20
2023-01-28T11:56:00.568Z,12.32
2023-01-28T11:59:05.213Z,4.88
2023-01-28T12:01:48.697Z,16.00
2023-01-28T12:04:33.711Z,6.25
2023-01-28T12:11:43.905Z,4.20
2023-01-28T12:14:19.239Z,4.10
2023-01-28T12:16:58.436Z,6.25
2023-01-28T12:19:51.148Z,5.35
2023-01-28T12:22:27.250Z,5.43
2023-01-28T12:24:57.243Z,5.47
2023-01-28T12:28:02.614Z,4.90
2023-01-28T12:30:41.516Z,5.05
2023-01-28T12:33:34.248Z,5.57
2023-01-28T12:36:22.320Z,5.13
2023-01-28T12:39:19.873Z,6.15
2023-01-28T12:42:13.802Z,6.22
2023-01-28T12:44:54.804Z,5.90
2023-01-28T12:47:33.703Z,5.70
2023-01-28T12:50:12.421Z,5.78
2023-01-28T12:52:49.934Z,5.60
2023-01-28T12:55:22.798Z,6.05
2023-01-28T12:57:52.135Z,6.15
2023-01-28T13:00:33.197Z,5.93
2023-01-28T13:03:21.766Z,5.97
2023-01-28T13:05:58.095Z,6.13
2023-01-28T13:08:29.562Z,5.82
2023-01-28T13:10:58.901Z,6.00
2023-01-28T13:13:28.994Z,5.80
2023-01-28T13:15:56.354Z,6.22
2023-01-28T13:18:51.028Z,6.30
2023-01-28T13:21:40.149Z,6.40
2023-01-28T13:24:12.775Z,6.55
2023-01-28T13:26:56.446Z,7.25
2023-01-28T13:29:26.406Z,7.32
2023-01-28T13:32:14.799Z,7.43
2023-01-28T13:34:44.387Z,6.43
2023-01-28T13:37:31.537Z,6.93
2023-01-28T13:40:25.589Z,6.53
2023-01-28T13:43:44.997Z,6.78
2023-01-28T13:46:26.235Z,5.93
2023-01-28T13:48:57.691Z,7.38
2023-01-28T13:51:31.196Z,7.55
2023-01-28T13:54:03.357Z,6.78
2023-01-28T13:56:55.869Z,6.18
2023-01-28T13:59:22.803Z,5.57
2023-01-28T14:02:01.431Z,5.55
2023-01-28T14:04:56.584Z,5.50
2023-01-28T14:09:53.247Z,4.40
2023-01-28T14:12:49.423Z,5.32
2023-01-28T14:15:35.277Z,5.25
2023-01-28T14:18:04.447Z,6.03
2023-01-28T14:20:37.901Z,4.38
2023-01-28T14:23:14.478Z,3.78
2023-01-28T14:25:58.907Z,3.60
2023-01-28T14:28:57.177Z,7.97
2023-01-28T14:31:34.183Z,5.25
2023-01-28T14:34:27.622Z,4.45
2023-01-28T14:36:57.626Z,5.32
2023-01-28T14:39:37.525Z,4.53
2023-01-28T14:42:04.858Z,4.43
2023-01-28T14:44:40.476Z,4.00
2023-01-28T14:47:34.662Z,4.40
2023-01-28T14:50:20.364Z,4.00
2023-01-28T14:53:18.008Z,3.92
2023-01-28T14:56:13.521Z,5.63
2023-01-28T14:58:52.355Z,4.13
2023-01-28T15:01:27.977Z,4.10
2023-01-28T15:03:55.183Z,5.22
2023-01-28T15:06:31.265Z,3.92
2023-01-28T15:09:08.292Z,4.70
2023-01-28T15:11:39.606Z,4.32
2023-01-28T15:14:16.696Z,6.15
2023-01-28T15:16:49.323Z,5.55
2023-01-28T15:19:18.203Z,5.47
2023-01-28T15:21:46.186Z,4.68
2023-01-28T15:24:17.147Z,5.07
2023-01-28T15:26:48.075Z,5.40
2023-01-28T15:29:30.626Z,4.95
2023-01-28T15:31:57.719Z,5.30
2023-01-28T15:34:30.255Z,4.40
2023-01-28T15:36:58.802Z,4.88
2023-01-28T15:39:27.789Z,4.38
2023-01-28T15:42:07.023Z,4.63
2023-01-28T15:44:45.735Z,4.88
2023-01-28T15:47:21.042Z,4.95
2023-01-28T15:49:53.349Z,4.25
2023-01-28T15:52:22.064Z,4.30
2023-01-28T15:54:52.326Z,4.70
2023-01-28T15:57:21.688Z,4.72
2023-01-28T15:59:51.407Z,4.15
2023-01-28T16:02:25.312Z,4.20
2023-01-28T16:05:04.790Z,4.57
2023-01-28T16:07:33.459Z,4.60
2023-01-28T16:10:03.602Z,4.30
2023-01-28T16:12:30.702Z,4.85
2023-01-28T16:15:05.440Z,4.55
2023-01-28T16:17:42.384Z,4.93
2023-01-28T16:20:24.179Z,4.65
2023-01-28T16:22:51.967Z,6.45
2023-01-28T16:25:22.105Z,5.95
2023-01-28T16:27:49.189Z,6.20
2023-01-28T16:30:17.559Z,6.05
2023-01-28T16:32:45.183Z,6.65
2023-01-28T16:35:24.192Z,6.25
2023-01-28T16:37:51.335Z,7.60
2023-01-28T16:40:20.941Z,6.18
2023-01-28T16:42:48.911Z,6.53
2023-01-28T16:45:21.799Z,7.60
2023-01-28T16:47:48.958Z,7.85
2023-01-28T16:50:17.147Z,8.32
2023-01-28T16:52:46.283Z,8.07
2023-01-28T16:55:16.243Z,7.35
2023-01-28T16:57:44.516Z,7.80
2023-01-28T17:00:19.274Z,7.07
2023-01-28T17:02:46.759Z,5.80
2023-01-28T17:05:15.473Z,7.25
2023-01-28T17:07:43.152Z,7.57
2023-01-28T17:10:11.225Z,7.30
2023-01-28T17:12:38.338Z,8.20
2023-01-28T17:15:05.971Z,8.88
2023-01-28T17:17:33.389Z,7.43
2023-01-28T17:20:00.374Z,7.95
2023-01-28T17:22:27.865Z,7.65
2023-01-28T17:24:54.901Z,6.68
2023-01-28T17:27:21.836Z,7.85
2023-01-28T17:29:48.851Z,8.40
2023-01-28T17:32:15.969Z,10.65
2023-01-28T17:34:43.130Z,10.63
2023-01-28T17:37:10.133Z,11.45
2023-01-28T17:39:37.142Z,11.43
2023-01-28T17:42:04.199Z,11.18
2023-01-28T17:44:31.446Z,10.02
2023-01-28T17:46:58.498Z,10.40
2023-01-28T17:49:25.808Z,10.05
2023-01-28T17:51:53.312Z,9.60
2023-01-28T17:54:20.474Z,9.10
2023-01-28T17:56:47.510Z,10.07
2023-01-28T17:59:17.446Z,10.65
2023-01-28T18:01:45.325Z,9.63
2023-01-28T18:04:13.232Z,8.85
2023-01-28T18:06:40.253Z,9.32
2023-01-28T18:09:07.385Z,8.32
2023-01-28T18:11:34.354Z,9.00
2023-01-28T18:14:01.456Z,8.77
2023-01-28T18:16:28.497Z,9.15
2023-01-28T18:18:55.517Z,9.32
2023-01-28T18:21:42.966Z,9.00
2023-01-28T18:24:17.787Z,8.18
2023-01-28T18:26:44.985Z,6.82
2023-01-28T18:29:16.878Z,7.60
2023-01-28T18:31:44.340Z,8.52
2023-01-28T18:34:11.521Z,7.28
2023-01-28T18:36:38.550Z,8.35
2023-01-28T18:39:05.813Z,11.18
2023-01-28T18:41:32.806Z,10.23
2023-01-28T18:43:59.720Z,7.57
2023-01-28T18:46:26.760Z,8.48
2023-01-28T18:48:53.744Z,8.68
2023-01-28T18:51:30.060Z,8.48
2023-01-28T18:54:02.828Z,7.45
2023-01-28T18:56:30.826Z,8.15
2023-01-28T18:58:59.453Z,8.23
2023-01-28T19:01:26.953Z,8.40
2023-01-28T19:03:55.077Z,8.18
2023-01-28T19:06:22.214Z,8.32
2023-01-28T19:08:57.268Z,7.85
2023-01-28T19:11:25.518Z,8.82
2023-01-28T19:13:52.723Z,7.15
2023-01-28T19:16:20.769Z,7.28
2023-01-28T19:19:13.895Z,7.28
2023-01-28T19:21:41.146Z,6.70
2023-01-28T19:24:11.755Z,7.35
2023-01-28T19:26:38.847Z,6.65
2023-01-28T19:29:10.426Z,6.35
2023-01-28T19:31:38.166Z,5.38
2023-01-28T19:34:05.739Z,5.28
2023-01-28T19:36:34.425Z,5.68
2023-01-28T19:39:05.785Z,5.35
2023-01-28T19:41:32.806Z,5.05
2023-01-28T19:44:00.117Z,4.75
2023-01-28T19:46:28.078Z,4.90
2023-01-28T19:48:55.429Z,4.45
2023-01-28T19:51:23.304Z,4.55
2023-01-28T19:53:52.376Z,5.47
2023-01-28T19:56:21.180Z,5.07
2023-01-28T19:58:48.698Z,5.30
2023-01-28T20:01:21.274Z,5.03
2023-01-28T20:03:54.737Z,6.28
2023-01-28T20:06:23.988Z,5.72
2023-01-28T20:08:56.106Z,5.65
2023-01-28T20:11:24.062Z,5.40
2023-01-28T20:13:51.922Z,4.00
2023-01-28T20:16:23.658Z,4.10
2023-01-28T20:18:52.278Z,5.43
2023-01-28T20:21:19.638Z,5.00
2023-01-28T20:23:47.965Z,4.60
2023-01-28T20:26:15.839Z,4.03
2023-01-28T20:28:42.817Z,4.85
2023-01-28T20:31:11.101Z,4.07
2023-01-28T20:33:38.652Z,3.92
2023-01-28T20:36:12.552Z,3.97
2023-01-28T20:38:42.474Z,5.93
2023-01-28T20:41:12.546Z,4.85
2023-01-28T20:43:41.239Z,4.60
2023-01-28T20:46:15.969Z,3.83
2023-01-28T20:48:43.460Z,4.50
2023-01-28T20:51:13.098Z,3.88
2023-01-28T20:53:40.719Z,3.70
2023-01-28T20:56:09.591Z,3.70
2023-01-28T20:58:36.940Z,4.22
2023-01-28T21:01:04.588Z,3.85
2023-01-28T21:03:31.616Z,3.85
2023-01-28T21:05:58.909Z,3.80
2023-01-28T21:08:26.059Z,4.03
2023-01-28T21:10:53.468Z,3.47
2023-01-28T21:13:20.523Z,3.05
2023-01-28T21:15:55.942Z,3.42
2023-01-28T21:18:23.470Z,4.53
2023-01-28T21:20:51.328Z,3.58
2023-01-28T21:23:18.538Z,3.17
2023-01-28T21:25:47.282Z,3.88
2023-01-28T21:28:14.444Z,3.67
2023-01-28T21:30:41.925Z,4.10
2023-01-28T21:33:09.500Z,3.78
2023-01-28T21:35:37.947Z,4.35
2023-01-28T21:38:05.536Z,3.63
2023-01-28T21:40:33.956Z,3.60
2023-01-28T21:43:01.320Z,3.65
2023-01-28T21:45:28.772Z,2.92
2023-01-28T21:47:55.825Z,3.92
2023-01-28T21:50:23.962Z,3.60
2023-01-28T21:52:51.473Z,3.25
2023-01-28T21:55:19.050Z,4.22
2023-01-28T21:57:46.063Z,3.35
2023-01-28T22:00:13.826Z,3.55
2023-01-28T22:02:41.276Z,3.58
2023-01-28T22:05:08.758Z,3.47
2023-01-28T22:07:36.067Z,3.45
2023-01-28T22:10:03.159Z,3.30
2023-01-28T22:12:30.334Z,3.40
2023-01-28T22:14:57.311Z,3.65
2023-01-28T22:17:25.572Z,3.85
2023-01-28T22:19:52.508Z,3.67
2023-01-28T22:22:19.669Z,3.58
2023-01-28T22:24:46.700Z,3.63
2023-01-28T22:27:14.287Z,3.55
2023-01-28T22:29:41.273Z,3.70
2023-01-28T22:32:08.560Z,3.53
2023-01-28T22:34:35.735Z,3.70
2023-01-28T22:37:02.760Z,3.42
2023-01-28T22:39:29.799Z,3.60
2023-01-28T22:41:56.845Z,3.58
2023-01-28T22:44:23.824Z,3.80
2023-01-28T22:46:50.946Z,3.70
2023-01-28T22:49:18.053Z,3.97
2023-01-28T22:51:45.040Z,3.63
2023-01-28T22:54:14.968Z,3.97
2023-01-28T22:56:42.275Z,4.53
2023-01-28T22:59:11.488Z,4.18
2023-01-28T23:01:38.491Z,3.80
2023-01-28T23:04:05.553Z,4.20
2023-01-28T23:06:33.791Z,4.28
2023-01-28T23:09:00.820Z,3.70
2023-01-28T23:11:28.557Z,5.45
2023-01-28T23:14:22.175Z,4.05
2023-01-28T23:17:07.831Z,4.63
2023-01-28T23:19:53.539Z,4.25
2023-01-28T23:22:43.453Z,3.65
2023-01-28T23:25:11.105Z,4.18
2023-01-28T23:27:38.208Z,4.50
2023-01-28T23:30:10.305Z,4.47
2023-01-28T23:32:42.809Z,4.38
2023-01-28T23:35:10.614Z,4.40
2023-01-28T23:37:37.943Z,3.63
2023-01-28T23:40:06.064Z,4.13
2023-01-28T23:42:33.054Z,4.18
2023-01-28T23:45:00.071Z,4.22
2023-01-28T23:47:27.156Z,3.88
2023-01-28T23:49:54.352Z,4.20
2023-01-28T23:52:21.447Z,4.07
2023-01-28T23:54:48.405Z,3.70
2023-01-28T23:57:15.513Z,4.30
2023-01-28T23:59:43.102Z,5.03
